Time;durP1;ratioP1;P1;durP2;ratioP2;P2;SDS_P1;SDS_P2;PMS_P1;PMS_P2;Temp;Humidity;BMP_temperature;BMP_pressure;BME280_temperature;BME280_humidity;BME280_pressure;Samples;Min_cycle;Max_cycle;Signal;HPM_P1;HPM_P2
2022/06/03 00:02:52;;;;;;;11.20;10.20;;;;;;;18.28;85.50;93191.97;5061024;28;20633;-75
2022/06/03 00:05:36;;;;;;;9.50;9.00;;;;;;;18.29;85.36;93186.38;5049898;28;20195;-76
2022/06/03 00:08:16;;;;;;;9.80;9.20;;;;;;;18.21;86.33;93192.44;5068821;28;20297;-76
2022/06/03 00:11:24;;;;;;;11.07;10.30;;;;;;;17.96;87.67;93181.84;5051116;28;20883;-75
2022/06/03 00:14:14;;;;;;;11.30;10.33;;;;;;;18.20;86.48;93190.09;5051555;28;20246;-76
2022/06/03 00:16:45;;;;;;;10.47;9.50;;;;;;;18.17;86.57;93188.88;5052262;28;20226;-75
2022/06/03 00:19:38;;;;;;;10.30;9.70;;;;;;;18.12;87.13;93188.22;5050955;28;20857;-76
2022/06/03 00:22:12;;;;;;;10.17;9.47;;;;;;;18.17;86.57;93180.94;5066167;28;20226;-76
2022/06/03 00:24:47;;;;;;;10.03;9.30;;;;;;;18.15;86.73;93185.75;5050998;28;20175;-76
2022/06/03 00:27:35;;;;;;;10.80;9.90;;;;;;;18.14;87.11;93186.06;5065636;28;20226;-76
2022/06/03 00:30:38;;;;;;;10.70;9.80;;;;;;;18.08;87.17;93184.66;5051228;28;20195;-75
2022/06/03 00:33:13;;;;;;;10.77;10.07;;;;;;;17.99;88.29;93179.38;5048864;28;20218;-75
2022/06/03 00:36:02;;;;;;;10.40;9.60;;;;;;;17.97;88.20;93183.41;5048877;28;20349;-76
2022/06/03 00:38:37;;;;;;;11.67;10.83;;;;;;;17.93;89.01;93182.47;5048438;28;20221;-77
2022/06/03 00:41:08;;;;;;;10.57;9.20;;;;;;;17.89;88.84;93171.75;5050434;28;20196;-76
2022/06/03 00:43:52;;;;;;;10.57;9.77;;;;;;;17.95;89.18;93180.28;5049526;28;20236;-76
2022/06/03 00:46:39;;;;;;;15.70;10.13;;;;;;;17.92;89.53;93179.03;5062892;28;20183;-76
2022/06/03 00:49:14;;;;;;;10.03;9.33;;;;;;;17.87;90.60;93181.06;5070727;28;20194;-76
2022/06/03 00:52:13;;;;;;;11.40;10.50;;;;;;;17.63;91.09;93163.00;5070136;28;20321;-77
2022/06/03 00:55:23;;;;;;;11.47;10.77;;;;;;;17.55;92.08;93155.84;5070352;28;20203;-76
2022/06/03 00:57:48;;;;;;;11.63;10.80;;;;;;;17.73;92.07;93172.50;5045156;28;20224;-75
2022/06/03 01:00:16;;;;;;;10.73;9.90;;;;;;;17.69;92.13;93171.53;5069924;28;20216;-76
2022/06/03 01:02:51;;;;;;;10.67;9.70;;;;;;;17.80;91.05;93180.72;5064706;28;20227;-76
2022/06/03 01:05:54;;;;;;;11.23;10.53;;;;;;;17.75;91.62;93172.94;5065904;28;20188;-76
2022/06/03 01:08:26;;;;;;;10.83;9.90;;;;;;;17.77;91.55;93173.44;5049686;28;20888;-74
2022/06/03 01:11:29;;;;;;;10.07;9.37;;;;;;;17.79;91.17;93168.63;5065922;28;20236;-76
2022/06/03 01:14:14;;;;;;;11.90;10.80;;;;;;;17.58;91.89;93155.22;5069125;28;20216;-76
2022/06/03 01:17:04;;;;;;;10.57;9.87;;;;;;;17.59;92.30;93157.53;5102446;28;20278;-76
2022/06/03 01:20:03;;;;;;;11.27;10.33;;;;;;;17.51;93.05;93155.66;5102054;28;20653;-75
2022/06/03 01:22:35;;;;;;;11.00;9.97;;;;;;;17.53;93.04;93169.34;5069030;28;20225;-76
2022/06/03 01:25:22;;;;;;;10.63;9.83;;;;;;;17.62;92.13;93158.78;5069692;28;20190;-77
2022/06/03 01:28:16;;;;;;;10.90;10.03;;;;;;;17.56;91.21;93170.56;5069223;28;20264;-74
2022/06/03 01:31:00;;;;;;;10.20;9.30;;;;;;;17.48;92.35;93151.00;5069820;28;20190;-76
2022/06/03 01:33:50;;;;;;;11.27;10.27;;;;;;;17.54;90.89;93144.47;5068666;28;20224;-76
2022/06/03 01:36:51;;;;;;;11.50;10.67;;;;;;;17.60;89.30;93156.44;5069529;28;20198;-76
2022/06/03 01:39:34;;;;;;;10.53;9.87;;;;;;;17.67;88.70;93160.50;5048447;28;20232;-76
2022/06/03 01:42:15;;;;;;;11.57;10.67;;;;;;;17.75;89.47;93157.88;5069003;28;20229;-76
2022/06/03 01:45:02;;;;;;;10.70;10.03;;;;;;;17.84;89.50;93163.94;5069051;28;20181;-76
2022/06/03 01:47:43;;;;;;;11.63;10.73;;;;;;;17.74;90.26;93164.28;5068580;28;20300;-76
2022/06/03 01:50:38;;;;;;;10.50;9.80;;;;;;;17.69;90.58;93166.25;5068675;28;20208;-76
2022/06/03 01:53:06;;;;;;;11.33;10.30;;;;;;;17.65;90.64;93165.34;5083965;28;20221;-76
2022/06/03 01:55:44;;;;;;;11.30;10.50;;;;;;;17.63;91.28;93167.50;5085104;28;20185;-76
2022/06/03 01:58:12;;;;;;;9.90;9.20;;;;;;;17.51;91.79;93176.78;5068809;28;20307;-75
2022/06/03 02:00:48;;;;;;;12.67;11.40;;;;;;;17.51;92.29;93176.00;5068867;28;20193;-76
2022/06/03 02:03:31;;;;;;;11.60;10.70;;;;;;;17.61;91.32;93167.81;5067093;28;20292;-76
2022/06/03 02:06:18;;;;;;;11.70;11.00;;;;;;;17.49;91.44;93173.66;5068214;28;20185;-76
2022/06/03 02:09:02;;;;;;;11.60;10.50;;;;;;;17.56;91.13;93179.28;5068838;28;20205;-76
2022/06/03 02:12:02;;;;;;;11.63;10.83;;;;;;;17.56;91.19;93167.94;5067394;28;20254;-76
2022/06/03 02:14:46;;;;;;;11.20;10.33;;;;;;;17.49;91.21;93176.31;5068490;28;20268;-76
2022/06/03 02:17:36;;;;;;;11.03;10.30;;;;;;;17.43;91.20;93174.84;5068374;28;20723;-76
2022/06/03 02:20:34;;;;;;;11.67;10.87;;;;;;;17.53;90.51;93179.91;5068598;28;20182;-76
2022/06/03 02:23:14;;;;;;;10.13;9.43;;;;;;;17.42;91.42;93178.59;5068085;28;20236;-77
2022/06/03 02:26:06;;;;;;;10.93;10.10;;;;;;;17.42;91.89;93177.81;5067479;28;20198;-77
2022/06/03 02:32:15;;;;;;;10.53;9.83;;;;;;;17.38;92.46;93180.31;5059141;28;20311;-77
2022/06/03 02:35:12;;;;;;;10.90;9.87;;;;;;;17.39;91.75;93179.22;5068275;28;20213;-77
2022/06/03 02:37:46;;;;;;;10.87;10.17;;;;;;;17.33;91.96;93187.56;5068309;28;20239;-77
2022/06/03 02:40:55;;;;;;;10.33;9.53;;;;;;;17.31;91.96;93182.59;5068661;28;20208;-78
2022/06/03 02:43:57;;;;;;;10.77;9.97;;;;;;;17.18;93.01;93183.47;5068260;28;20244;-77
2022/06/03 02:46:54;;;;;;;10.63;9.67;;;;;;;17.26;92.20;93190.63;5068350;28;20195;-77
2022/06/03 02:49:32;;;;;;;10.97;10.23;;;;;;;17.30;91.94;93186.31;5066816;28;20193;-74
2022/06/03 02:52:27;;;;;;;9.80;9.13;;;;;;;17.39;90.74;93187.13;5067239;28;20247;-75
2022/06/03 02:55:24;;;;;;;11.57;10.60;;;;;;;17.41;90.68;93200.81;5067581;28;20640;-78
2022/06/03 02:58:18;;;;;;;10.57;9.77;;;;;;;17.45;91.22;93196.50;5068062;28;20233;-77
2022/06/03 03:01:15;;;;;;;11.33;10.60;;;;;;;17.48;91.45;93195.09;5099738;28;20194;-77
2022/06/03 03:04:08;;;;;;;11.50;10.77;;;;;;;17.59;90.74;93194.53;5087781;28;20261;-78
2022/06/03 03:06:50;;;;;;;12.47;10.53;;;;;;;18.01;89.08;93193.03;5072096;28;20178;-77
2022/06/03 03:09:37;;;;;;;11.37;10.63;;;;;;;18.68;84.37;93196.81;5072126;28;20197;-77
2022/06/03 03:12:35;;;;;;;10.40;9.80;;;;;;;19.59;79.83;93205.13;5081572;28;20236;-77
2022/06/03 03:15:20;;;;;;;10.10;9.50;;;;;;;20.26;76.06;93211.16;5052539;28;20193;-77
2022/06/03 03:18:13;;;;;;;11.10;10.00;;;;;;;20.62;74.25;93208.69;5051201;28;20264;-77
2022/06/03 03:21:15;;;;;;;10.77;9.93;;;;;;;21.04;72.44;93209.44;5051269;28;20210;-77
2022/06/03 03:23:49;;;;;;;11.63;9.80;;;;;;;20.87;72.70;93200.81;5051242;28;20228;-77
2022/06/03 03:26:39;;;;;;;9.83;9.23;;;;;;;21.19;72.02;93211.44;5052175;28;20195;-77
2022/06/03 03:29:23;;;;;;;9.77;9.17;;;;;;;22.35;67.66;93209.06;5072628;28;20816;-77
2022/06/03 03:32:13;;;;;;;9.97;9.33;;;;;;;22.71;64.95;93220.41;5071497;28;20223;-74
2022/06/03 03:34:38;;;;;;;9.47;8.97;;;;;;;22.23;67.17;93225.81;5072019;28;20237;-75
2022/06/03 03:37:09;;;;;;;8.57;7.90;;;;;;;22.23;67.65;93217.81;5087197;28;20265;-75
2022/06/03 03:39:53;;;;;;;9.97;9.07;;;;;;;22.49;66.70;93210.22;5071409;28;20200;-76
2022/06/03 03:42:43;;;;;;;9.80;9.00;;;;;;;23.84;63.18;93232.16;5071575;28;20233;-79
2022/06/03 03:45:33;;;;;;;10.05;9.13;;;;;;;25.53;56.96;93244.56;5070866;28;20192;-78
2022/06/03 03:48:17;;;;;;;8.80;8.25;;;;;;;24.69;58.81;93234.88;5061786;28;20236;-77
2022/06/03 03:51:10;;;;;;;9.88;9.27;;;;;;;23.57;62.28;93233.78;5048890;28;20192;-75
2022/06/03 03:53:56;;;;;;;10.18;9.32;;;;;;;23.60;63.61;93238.44;5049676;28;20236;-72
2022/06/03 03:56:36;;;;;;;9.85;9.00;;;;;;;24.17;60.86;93232.59;5050082;28;20222;-74
2022/06/03 03:59:10;;;;;;;9.93;9.07;;;;;;;24.15;61.08;93239.38;5067932;28;20207;-74
2022/06/03 04:01:38;;;;;;;9.30;8.80;;;;;;;23.55;62.84;93233.34;5070019;28;20187;-74
2022/06/03 04:04:34;;;;;;;9.40;8.85;;;;;;;23.15;64.29;93237.19;5070053;28;20192;-73
2022/06/03 04:07:37;;;;;;;9.88;9.27;;;;;;;23.15;64.73;93242.53;5061334;28;20231;-73
2022/06/03 04:10:40;;;;;;;9.88;9.27;;;;;;;23.33;64.49;93244.56;5047665;28;20252;-75
2022/06/03 04:13:44;;;;;;;9.93;9.32;;;;;;;23.60;63.62;93238.44;5043377;28;20253;-75
2022/06/03 04:16:34;;;;;;;9.70;8.85;;;;;;;22.51;67.18;93228.53;5042153;28;20212;-74
2022/06/03 04:19:00;;;;;;;9.70;9.05;;;;;;;22.54;67.62;93220.66;5069549;28;20222;-78
2022/06/03 04:21:49;;;;;;;10.27;9.63;;;;;;;22.15;69.01;93222.16;5066463;28;20226;-77
2022/06/03 04:24:37;;;;;;;9.93;9.23;;;;;;;22.31;68.54;93229.44;5066739;28;20176;-76
2022/06/03 04:27:29;;;;;;;10.90;10.10;;;;;;;22.37;67.91;93212.91;5066419;28;20232;-75
2022/06/03 04:30:13;;;;;;;9.98;9.27;;;;;;;22.34;69.16;93245.53;5069176;28;20216;-76
2022/06/03 04:33:16;;;;;;;10.65;9.95;;;;;;;22.51;68.73;93242.63;5066787;28;20231;-75
2022/06/03 04:36:06;;;;;;;10.40;9.73;;;;;;;22.91;67.82;93248.72;5067785;28;20197;-75
2022/06/03 04:38:50;;;;;;;10.40;9.70;;;;;;;22.80;68.07;93258.31;5061914;28;20225;-76
2022/06/03 04:41:30;;;;;;;11.68;10.27;;;;;;;22.53;67.92;93264.38;5049639;28;20211;-76
2022/06/03 04:44:18;;;;;;;10.88;10.05;;;;;;;22.19;68.91;93270.91;5049392;28;20303;-78
2022/06/03 04:47:21;;;;;;;10.45;9.75;;;;;;;22.54;68.52;93265.91;5046155;28;20295;-85
2022/06/03 04:50:11;;;;;;;11.27;10.40;;;;;;;22.56;68.16;93274.34;5047585;28;20193;-86
2022/06/03 04:52:42;;;;;;;11.90;10.90;;;;;;;22.48;67.90;93283.19;5047688;28;20225;-86
2022/06/03 04:55:32;;;;;;;11.55;10.70;;;;;;;22.49;67.68;93279.41;5047702;28;21022;-86
2022/06/03 04:58:11;;;;;;;10.85;10.07;;;;;;;22.79;66.44;93286.06;5047989;28;20246;-85
2022/06/03 05:00:56;;;;;;;12.25;10.35;;;;;;;23.10;66.02;93283.50;5079767;28;20194;-82
2022/06/03 05:03:41;;;;;;;11.23;10.35;;;;;;;23.40;64.27;93271.44;5046399;28;20231;-81
2022/06/03 05:06:29;;;;;;;11.75;10.75;;;;;;;23.58;65.33;93287.88;5047007;28;20213;-81
2022/06/03 05:09:16;;;;;;;10.63;9.65;;;;;;;24.98;59.67;93296.56;5047722;28;20334;-76
2022/06/03 05:12:00;;;;;;;11.52;10.60;;;;;;;24.82;60.22;93298.53;5067640;28;20267;-83
2022/06/03 05:15:03;;;;;;;11.88;10.90;;;;;;;24.34;61.84;93293.59;5068597;28;20208;-82
2022/06/03 05:17:50;;;;;;;11.75;10.75;;;;;;;24.23;63.41;93294.47;5067662;28;20253;-81
2022/06/03 05:21:00;;;;;;;11.55;10.80;;;;;;;24.34;63.13;93298.94;5067052;28;20222;-81
2022/06/03 05:23:49;;;;;;;13.00;11.90;;;;;;;24.17;63.84;93293.19;5079927;28;20233;-80
2022/06/03 05:26:52;;;;;;;12.30;11.43;;;;;;;25.24;60.70;93303.97;5068019;28;20183;-79
2022/06/03 05:29:44;;;;;;;13.45;12.13;;;;;;;24.92;60.15;93313.22;5066751;28;20221;-81
2022/06/03 05:32:29;;;;;;;11.40;10.45;;;;;;;26.56;55.20;93312.84;5041995;28;20235;-73
2022/06/03 05:35:18;;;;;;;12.50;11.40;;;;;;;31.06;44.10;93332.16;5069267;28;20199;-74
2022/06/03 05:38:31;;;;;;;11.63;10.63;;;;;;;32.88;38.25;93335.91;5066773;28;20233;-75
2022/06/03 05:41:05;;;;;;;11.30;10.35;;;;;;;35.37;34.47;93350.84;5069219;28;20736;-76
2022/06/03 05:44:01;;;;;;;11.10;10.15;;;;;;;35.51;32.83;93347.88;5064090;28;20236;-76
2022/06/03 05:46:40;;;;;;;10.10;9.27;;;;;;;34.91;33.84;93340.78;5046328;28;20198;-75
2022/06/03 05:49:12;;;;;;;10.48;9.63;;;;;;;36.15;31.50;93336.50;5046932;28;20198;-75
2022/06/03 05:51:43;;;;;;;10.63;9.13;;;;;;;34.79;33.81;93341.31;5048371;28;20260;-75
2022/06/03 05:54:30;;;;;;;9.30;8.70;;;;;;;36.74;30.72;93342.56;5080820;28;20264;-77
2022/06/03 05:57:14;;;;;;;10.52;7.80;;;;;;;38.93;27.13;93338.06;5055684;28;20232;-74
2022/06/03 05:59:58;;;;;;;10.20;9.15;;;;;;;37.34;29.53;93330.22;5068560;28;20181;-75
2022/06/03 06:02:38;;;;;;;8.68;7.97;;;;;;;39.55;26.82;93339.91;5068297;28;20233;-78
2022/06/03 06:05:47;;;;;;;9.25;8.55;;;;;;;39.68;25.83;93335.13;5068813;28;20189;-74
2022/06/03 06:08:24;;;;;;;8.77;7.97;;;;;;;40.11;25.63;93335.16;5067006;28;20237;-77
2022/06/03 06:11:03;;;;;;;8.38;7.68;;;;;;;39.62;26.23;93315.81;5068090;28;20235;-77
2022/06/03 06:14:04;;;;;;;8.95;8.15;;;;;;;40.50;24.79;93312.56;5067675;28;20316;-79
2022/06/03 06:16:37;;;;;;;9.45;7.72;;;;;;;39.41;26.84;93321.25;5068140;28;20193;-78
2022/06/03 06:19:08;;;;;;;8.45;7.65;;;;;;;40.18;25.30;93315.72;5067904;28;20220;-78
2022/06/03 06:22:05;;;;;;;9.60;8.63;;;;;;;39.16;26.19;93319.34;5066808;28;20260;-79
2022/06/03 06:24:34;;;;;;;16.50;8.88;;;;;;;35.68;30.72;93305.25;5067921;28;20186;-81
2022/06/03 06:27:18;;;;;;;9.50;7.70;;;;;;;38.55;27.58;93308.06;5067457;28;20267;-79
2022/06/03 06:30:02;;;;;;;14.75;7.38;;;;;;;39.60;26.10;93312.00;5068710;28;20189;-78
2022/06/03 06:32:36;;;;;;;9.00;7.70;;;;;;;38.97;27.14;93316.84;5066697;28;20241;-77
2022/06/03 06:35:40;;;;;;;8.32;6.57;;;;;;;39.11;26.60;93313.69;5068187;28;20180;-77
2022/06/03 06:38:18;;;;;;;8.10;6.85;;;;;;;38.58;27.15;93306.41;5067665;28;20229;-77
2022/06/03 06:41:06;;;;;;;9.73;7.50;;;;;;;35.86;30.53;93300.22;5067628;28;20197;-78
2022/06/03 06:43:43;;;;;;;10.40;8.27;;;;;;;35.17;32.58;93296.50;5048562;28;20261;-77
2022/06/03 06:46:34;;;;;;;8.30;7.47;;;;;;;34.66;32.78;93293.47;5047456;28;20216;-74
2022/06/03 06:49:02;;;;;;;9.27;8.43;;;;;;;30.93;40.22;93279.78;5047412;28;20210;-74
2022/06/03 06:51:33;;;;;;;9.55;8.75;;;;;;;28.79;46.90;93274.66;5047533;28;20253;-75
2022/06/03 06:54:12;;;;;;;8.68;8.07;;;;;;;28.08;49.49;93246.50;5046191;28;21185;-74
2022/06/03 06:57:01;;;;;;;10.50;9.70;;;;;;;26.84;52.15;93263.47;5046574;28;20244;-75
2022/06/03 06:59:39;;;;;;;10.20;9.45;;;;;;;26.81;52.10;93259.63;5047285;28;20209;-74
2022/06/03 07:02:18;;;;;;;9.52;8.45;;;;;;;26.98;51.43;93266.34;5047696;28;20259;-76
2022/06/03 07:05:01;;;;;;;10.98;9.65;;;;;;;27.25;49.92;93263.25;5048575;28;20227;-77
2022/06/03 07:07:34;;;;;;;9.02;8.43;;;;;;;26.53;51.53;93267.25;5046442;28;20260;-77
2022/06/03 07:10:11;;;;;;;9.65;8.85;;;;;;;26.46;51.09;93259.88;5046267;28;20218;-76
2022/06/03 07:13:08;;;;;;;15.88;10.02;;;;;;;26.21;54.27;93272.13;5062686;28;20234;-74
2022/06/03 07:15:52;;;;;;;10.77;9.77;;;;;;;26.79;52.03;93256.53;5062298;28;20198;-77
2022/06/03 07:21:58;;;;;;;9.73;9.02;;;;;;;26.21;53.62;93261.41;5047183;28;20244;-76
2022/06/03 07:24:45;;;;;;;9.75;9.05;;;;;;;26.39;52.42;93270.50;5045987;28;20257;-78
2022/06/03 07:27:45;;;;;;;9.57;8.82;;;;;;;26.31;51.84;93260.81;5062274;28;20218;-79
2022/06/03 07:30:17;;;;;;;10.30;9.40;;;;;;;26.73;49.53;93241.91;5044145;28;20265;-78
2022/06/03 07:33:09;;;;;;;13.30;9.48;;;;;;;26.08;51.83;93256.63;5058682;28;20225;-76
2022/06/03 07:35:44;;;;;;;11.23;10.07;;;;;;;26.31;49.82;93250.09;5066200;28;20198;-77
2022/06/03 07:38:25;;;;;;;10.27;9.35;;;;;;;26.08;52.04;93264.63;5066796;28;20224;-74
2022/06/03 07:41:14;;;;;;;8.93;8.32;;;;;;;26.00;52.32;93263.75;5066461;28;20193;-73
2022/06/03 07:43:44;;;;;;;10.68;9.77;;;;;;;25.17;53.15;93261.81;5066084;28;20306;-73
2022/06/03 07:46:26;;;;;;;10.10;9.18;;;;;;;25.64;54.28;93269.59;5067665;28;20190;-74
2022/06/03 07:48:52;;;;;;;12.45;9.60;;;;;;;25.20;53.90;93269.13;5067562;28;20227;-75
2022/06/03 07:51:23;;;;;;;10.07;8.90;;;;;;;25.79;51.68;93268.72;5070948;28;20189;-74
2022/06/03 07:54:03;;;;;;;9.55;8.80;;;;;;;26.51;50.53;93277.53;5083439;28;20304;-73
2022/06/03 07:56:31;;;;;;;10.90;9.90;;;;;;;26.86;49.55;93269.25;5051393;28;20182;-76
2022/06/03 07:59:09;;;;;;;9.68;8.90;;;;;;;26.96;48.35;93279.38;5086940;28;20264;-76
2022/06/03 08:01:37;;;;;;;10.07;9.30;;;;;;;27.06;50.13;93284.06;5072467;28;20200;-77
2022/06/03 08:04:05;;;;;;;10.30;9.40;;;;;;;27.02;52.58;93280.59;5069860;28;20204;-74
2022/06/03 08:12:12;;;;;;;10.18;9.32;;;;;;;27.45;48.65;93279.97;5060216;28;20261;-76
2022/06/03 08:14:37;;;;;;;9.88;9.18;;;;;;;27.48;46.67;93279.25;5048232;28;20246;-73
2022/06/03 08:17:06;;;;;;;10.10;9.15;;;;;;;27.20;47.40;93294.97;5050529;28;20229;-76
2022/06/03 08:19:34;;;;;;;11.07;9.63;;;;;;;26.51;50.98;93293.63;5049794;28;20183;-76
2022/06/03 08:22:04;;;;;;;9.30;8.65;;;;;;;27.00;48.61;93282.84;5050358;28;20258;-78
2022/06/03 08:24:40;;;;;;;10.20;9.40;;;;;;;27.41;48.28;93274.56;5049898;28;20194;-73
2022/06/03 08:27:12;;;;;;;10.63;9.70;;;;;;;27.70;47.30;93289.06;5055990;28;20243;-73
2022/06/03 08:29:46;;;;;;;10.68;9.60;;;;;;;27.72;47.54;93302.91;5067163;28;20197;-75
2022/06/03 08:32:18;;;;;;;10.65;9.63;;;;;;;27.35;49.61;93296.72;5066850;28;20699;-73
2022/06/03 08:34:49;;;;;;;10.82;8.98;;;;;;;27.25;49.89;93275.88;5070516;28;20202;-74
2022/06/03 08:37:20;;;;;;;11.38;10.32;;;;;;;26.56;51.09;93299.44;5065934;28;20221;-75
2022/06/03 08:39:48;;;;;;;11.00;10.10;;;;;;;26.56;49.20;93299.44;5069135;28;21632;-75
2022/06/03 08:42:52;;;;;;;13.40;9.10;;;;;;;26.06;50.95;93291.78;5069455;28;20237;-73
2022/06/03 08:45:33;;;;;;;13.60;9.32;;;;;;;26.01;50.74;93288.63;5036461;28;20213;-72
2022/06/03 08:48:06;;;;;;;11.38;9.15;;;;;;;26.24;50.71;93300.84;5070331;28;20221;-73
2022/06/03 08:50:41;;;;;;;11.25;10.30;;;;;;;25.17;52.91;93303.81;5070183;28;20186;-72
2022/06/03 08:53:35;;;;;;;9.85;9.13;;;;;;;25.84;51.76;93295.19;5068466;28;20227;-72
2022/06/03 08:56:04;;;;;;;10.50;9.45;;;;;;;26.54;49.84;93301.72;5069413;28;20196;-72
2022/06/03 08:58:56;;;;;;;11.40;10.40;;;;;;;26.88;50.03;93313.31;5069049;28;20217;-74
2022/06/03 09:01:33;;;;;;;10.38;9.57;;;;;;;27.62;48.17;93300.84;5069210;28;20196;-76
2022/06/03 09:04:04;;;;;;;10.20;9.05;;;;;;;28.20;46.86;93309.91;5069016;28;20217;-78
2022/06/03 09:06:43;;;;;;;11.20;10.15;;;;;;;27.21;48.22;93278.50;5084707;28;20193;-75
2022/06/03 09:09:13;;;;;;;11.73;10.20;;;;;;;26.55;51.32;93307.84;5069388;28;20193;-75
2022/06/03 09:12:11;;;;;;;10.38;9.55;;;;;;;26.17;50.31;93271.31;5068715;28;20225;-76
2022/06/03 09:14:41;;;;;;;12.68;8.95;;;;;;;26.52;49.34;93293.25;5068165;28;20277;-77
2022/06/03 09:17:43;;;;;;;9.35;8.55;;;;;;;26.50;50.00;93300.91;5069589;28;20798;-76
2022/06/03 09:20:13;;;;;;;10.95;10.25;;;;;;;25.89;52.39;93310.94;5067742;28;20219;-76
2022/06/03 09:22:40;;;;;;;11.27;10.30;;;;;;;25.88;52.50;93288.00;5066718;28;20234;-76
2022/06/03 09:25:10;;;;;;;10.10;9.32;;;;;;;25.92;52.61;93302.22;5100066;28;20216;-76
2022/06/03 09:27:36;;;;;;;10.60;9.82;;;;;;;25.85;54.16;93312.81;5067867;28;20224;-74
2022/06/03 09:30:06;;;;;;;10.77;9.85;;;;;;;26.05;53.97;93319.69;5069787;28;20196;-75
2022/06/03 09:32:38;;;;;;;10.63;9.93;;;;;;;26.07;53.52;93304.00;5061188;28;20229;-74
2022/06/03 09:35:11;;;;;;;10.63;9.82;;;;;;;26.17;52.98;93314.13;5047397;28;20197;-75
2022/06/03 09:37:44;;;;;;;10.88;9.88;;;;;;;26.67;51.82;93315.72;5048125;28;20226;-75
2022/06/03 09:40:20;;;;;;;10.68;9.98;;;;;;;26.61;52.33;93309.88;5049115;28;20197;-78
2022/06/03 09:43:28;;;;;;;10.80;10.00;;;;;;;27.17;49.45;93306.44;5060218;28;20225;-75
2022/06/03 09:45:56;;;;;;;10.10;9.25;;;;;;;26.64;51.81;93311.84;5069368;28;20209;-75
2022/06/03 09:48:29;;;;;;;11.65;10.68;;;;;;;26.78;52.75;93305.91;5066887;28;20228;-74
2022/06/03 09:50:57;;;;;;;11.07;10.38;;;;;;;26.62;54.27;93308.72;5068457;28;20194;-76
2022/06/03 09:53:26;;;;;;;11.52;10.65;;;;;;;26.29;54.89;93319.31;5068520;28;20232;-76
2022/06/03 09:55:56;;;;;;;10.23;9.43;;;;;;;26.32;56.05;93310.53;5068501;28;20209;-79
2022/06/03 09:58:25;;;;;;;11.00;10.27;;;;;;;26.51;53.62;93305.13;5082477;28;20228;-80
2022/06/03 10:00:53;;;;;;;12.18;10.55;;;;;;;26.55;54.81;93311.28;5067263;28;20185;-81
2022/06/03 10:03:20;;;;;;;11.27;10.45;;;;;;;26.65;51.12;93313.38;5050158;28;20241;-79
2022/06/03 10:05:49;;;;;;;11.05;10.20;;;;;;;26.33;52.32;93296.03;5048099;28;20178;-80
2022/06/03 10:08:17;;;;;;;13.57;9.57;;;;;;;26.44;52.55;93320.31;5046990;28;20234;-80
2022/06/03 10:13:31;;;;;;;11.02;10.23;;;;;;;27.19;49.16;93269.31;5046607;28;20232;-79
2022/06/03 10:15:59;;;;;;;10.48;9.80;;;;;;;26.44;51.19;93321.09;5048653;28;20190;-80
2022/06/03 10:18:47;;;;;;;10.68;9.77;;;;;;;25.93;52.35;93311.03;5047860;28;20222;-77
2022/06/03 10:21:12;;;;;;;10.80;9.98;;;;;;;26.02;52.76;93317.72;5047260;28;20204;-77
2022/06/03 10:23:47;;;;;;;11.13;10.23;;;;;;;25.74;51.68;93274.38;5047524;28;20222;-76
2022/06/03 10:26:22;;;;;;;9.77;9.20;;;;;;;25.78;51.70;93312.66;5048510;28;20679;-76
2022/06/03 10:28:50;;;;;;;10.30;9.48;;;;;;;25.76;53.50;93274.78;5082257;28;20219;-76
2022/06/03 10:31:29;;;;;;;10.82;9.82;;;;;;;26.25;51.36;93325.72;5068289;28;20256;-82
2022/06/03 10:34:04;;;;;;;11.68;9.77;;;;;;;26.48;50.50;93291.66;5048049;28;20213;-77
2022/06/03 10:36:36;;;;;;;10.77;9.98;;;;;;;26.54;49.56;93317.00;5049690;28;20215;-77
2022/06/03 10:39:03;;;;;;;9.82;9.23;;;;;;;27.19;49.40;93309.53;5068414;28;20182;-77
2022/06/03 10:41:38;;;;;;;10.65;9.95;;;;;;;27.35;48.85;93302.09;5066832;28;20193;-73
2022/06/03 10:44:23;;;;;;;9.15;8.48;;;;;;;26.88;48.84;93317.91;5065785;28;20189;-75
2022/06/03 10:47:19;;;;;;;10.20;9.50;;;;;;;26.72;47.94;93313.47;5064955;28;20239;-74
2022/06/03 10:49:57;;;;;;;10.18;9.38;;;;;;;26.18;51.80;93298.84;5063151;28;20235;-75
2022/06/03 11:01:31;;;;;;;10.68;9.98;;;;;;;25.86;53.74;93303.63;5067286;28;20200;-74
2022/06/03 11:03:57;;;;;;;11.20;9.68;;;;;;;25.96;51.66;93294.25;5045240;28;20220;-75
2022/06/03 11:06:26;;;;;;;11.00;10.30;;;;;;;26.03;50.29;93300.50;5045373;28;20197;-74
2022/06/03 11:08:59;;;;;;;10.48;9.60;;;;;;;26.30;49.84;93295.97;5045092;28;20210;-74
2022/06/03 11:11:42;;;;;;;11.18;10.27;;;;;;;25.81;51.37;93298.56;5044327;28;20206;-74
2022/06/03 11:14:32;;;;;;;10.80;9.90;;;;;;;25.95;51.15;93304.16;5046344;28;20225;-74
2022/06/03 11:17:01;;;;;;;10.40;9.55;;;;;;;26.30;51.61;93291.41;5085697;28;20236;-73
2022/06/03 11:19:38;;;;;;;10.57;9.57;;;;;;;26.16;49.42;93290.41;5067980;28;20196;-72
2022/06/03 11:22:33;;;;;;;10.80;9.93;;;;;;;26.06;48.81;93291.78;5066893;28;20235;-73
2022/06/03 11:25:18;;;;;;;9.82;9.10;;;;;;;26.44;49.90;93286.28;5070686;28;20208;-72
2022/06/03 11:27:57;;;;;;;11.88;10.82;;;;;;;26.20;47.02;93280.50;5072044;28;20299;-73
2022/06/03 11:30:39;;;;;;;10.32;9.43;;;;;;;26.31;47.55;93276.88;5071756;28;20197;-73
2022/06/03 11:33:24;;;;;;;10.15;9.38;;;;;;;26.42;46.07;93271.66;5070767;28;20239;-73
2022/06/03 11:35:55;;;;;;;10.35;9.48;;;;;;;26.64;46.68;93271.66;5069970;28;20219;-73
2022/06/03 11:38:31;;;;;;;10.18;9.48;;;;;;;26.80;49.38;93254.63;5070678;28;20212;-72
2022/06/03 11:41:02;;;;;;;9.38;8.68;;;;;;;27.18;47.24;93251.66;5070737;28;20204;-73
2022/06/03 11:43:42;;;;;;;9.73;8.95;;;;;;;27.16;45.89;93248.59;5068397;28;20217;-74
2022/06/03 11:46:13;;;;;;;9.70;9.02;;;;;;;27.00;46.82;93240.75;5070683;28;20186;-73
2022/06/03 11:48:42;;;;;;;11.35;10.23;;;;;;;26.67;46.26;93238.00;5050588;28;20260;-73
2022/06/03 11:51:09;;;;;;;10.27;9.38;;;;;;;26.68;45.60;93234.97;5049960;28;20205;-73
2022/06/03 11:53:39;;;;;;;9.98;9.15;;;;;;;27.47;45.32;93238.22;5051038;28;20237;-73
2022/06/03 11:56:08;;;;;;;9.75;9.02;;;;;;;27.48;47.18;93236.31;5050957;28;20202;-73
2022/06/03 11:58:53;;;;;;;10.02;9.27;;;;;;;27.62;44.96;93236.47;5069438;28;21452;-73
2022/06/03 12:01:30;;;;;;;10.85;9.63;;;;;;;27.59;43.76;93231.81;5069541;28;20185;-73
2022/06/03 12:04:14;;;;;;;9.82;9.13;;;;;;;27.72;42.96;93230.44;5070218;28;20200;-73
2022/06/03 12:06:46;;;;;;;10.68;9.75;;;;;;;28.13;44.10;93240.78;5069672;28;20252;-73
2022/06/03 12:09:22;;;;;;;10.23;9.43;;;;;;;27.97;42.56;93242.19;5069361;28;20916;-72
2022/06/03 12:14:41;;;;;;;10.10;9.25;;;;;;;27.78;42.34;93227.00;5070139;28;20217;-73
2022/06/03 12:17:29;;;;;;;9.45;8.80;;;;;;;27.78;43.08;93234.31;5068802;28;20292;-72
2022/06/03 12:19:55;;;;;;;11.98;8.93;;;;;;;27.83;42.30;93232.06;5068638;28;20197;-73
2022/06/03 12:22:34;;;;;;;10.45;9.32;;;;;;;27.70;43.40;93233.47;5069190;28;20224;-74
2022/06/03 12:25:04;;;;;;;10.68;9.23;;;;;;;27.64;43.95;93234.19;5069160;28;20201;-74
2022/06/03 12:27:36;;;;;;;10.00;9.32;;;;;;;27.89;44.60;93237.91;5069927;28;20229;-72
2022/06/03 12:30:14;;;;;;;10.25;9.27;;;;;;;28.20;42.60;93230.06;5068797;28;20199;-72
2022/06/03 12:32:50;;;;;;;10.70;9.80;;;;;;;27.91;44.06;93227.53;5068077;28;20232;-72
2022/06/03 12:35:47;;;;;;;9.48;8.68;;;;;;;27.60;44.48;93230.69;5068823;28;20189;-74
2022/06/03 12:38:22;;;;;;;10.05;9.18;;;;;;;27.69;42.94;93233.84;5068860;28;20228;-72
2022/06/03 12:40:50;;;;;;;9.75;9.05;;;;;;;27.70;42.32;93233.47;5068980;28;20196;-77
2022/06/03 12:43:23;;;;;;;10.95;10.02;;;;;;;27.80;44.01;93234.72;5068986;28;20341;-72
2022/06/03 12:46:00;;;;;;;13.68;9.75;;;;;;;27.71;42.76;93234.22;5069719;28;20299;-73
2022/06/03 12:48:44;;;;;;;10.70;9.80;;;;;;;27.37;44.82;93225.47;5069512;28;20247;-71
2022/06/03 12:51:17;;;;;;;9.60;9.00;;;;;;;27.17;45.02;93228.66;5069878;28;20196;-73
2022/06/03 12:53:45;;;;;;;10.68;9.88;;;;;;;27.43;42.87;93229.38;5068784;28;20328;-72
2022/06/03 12:56:48;;;;;;;10.73;9.82;;;;;;;27.26;45.53;93219.22;5068521;28;21949;-72
2022/06/03 12:59:16;;;;;;;10.75;9.90;;;;;;;27.32;41.34;93220.44;5047836;28;20210;-72